Ashland, Illinois
Current Conditions -  °F | °C
As of 10:15 AM on Wednesday 22 Oct 2014 (Local Time) from KIJX Reporting Station
Clear Clear  
Wind Chill: 52°   Ceiling: Unl
Heat Index: 52°   Visibility: 10mi
Dew Point: 43°   Wind: 13mph
Humidity: 71%   Direction: 120°ESE
Pressure: 30.34"   Gusts: NA
Location:  39.89°N, 90.01°W
Report Text: KIJX 221515Z AUTO 12011KT 10SM CLR 11/06 A3034 RMK AO2 T01130062
Loading
Personal Weather Stations






























Interactive Weather Map
Tropical Storm Tracking
New forecast layout! Learn more

10-Day Weather Forecast

Advertisements
Track Severe Weather on mobile